Albany, Minnesota
Current Conditions -  °F | °C
As of 11:52 AM on Saturday 20 Dec 2014 (Local Time) from KD39 Reporting Station
Haze Haze  
Wind Chill: 20°   Ceiling: 700
Heat Index: 30°   Visibility: 5mi
Dew Point: 28°   Wind: 13mph
Humidity: 92%   Direction: 190°S
Pressure: 30.07"   Gusts: NA
Location:  45.63°N, 94.57°W
Report Text: KD39 201752Z AUTO 19011KT 5SM BR OVC007 M01/M02 A3007 RMK AO2 T10131025 11012 21015
Loading
Personal Weather Stations






























Interactive Weather Map New forecast layout! Learn more

10-Day Weather Forecast

Advertisements
Track Severe Weather on mobile